createdAt,value
2022-12-19T00:00:20.580Z,-1.99
2022-12-19T00:03:08.578Z,-1.90
2022-12-19T00:05:57.174Z,-1.88
2022-12-19T00:08:46.969Z,-1.86
2022-12-19T00:11:36.213Z,-1.80
2022-12-19T00:14:24.115Z,-1.71
2022-12-19T00:17:12.611Z,-1.85
2022-12-19T00:20:00.584Z,-1.81
2022-12-19T00:22:48.524Z,-1.65
2022-12-19T00:25:40.116Z,-1.51
2022-12-19T00:28:32.361Z,-1.61
2022-12-19T00:31:21.965Z,-1.49
2022-12-19T00:34:10.158Z,-1.63
2022-12-19T00:37:00.156Z,-1.50
2022-12-19T00:39:49.771Z,-1.57
2022-12-19T00:42:37.786Z,-1.60
2022-12-19T00:45:27.808Z,-1.49
2022-12-19T00:48:17.995Z,-1.28
2022-12-19T00:51:10.938Z,-1.44
2022-12-19T00:53:59.537Z,-1.70
2022-12-19T00:56:47.713Z,-1.29
2022-12-19T00:59:35.718Z,-1.23
2022-12-19T01:02:25.499Z,-1.17
2022-12-19T01:05:14.989Z,-1.04
2022-12-19T01:08:02.958Z,-0.95
2022-12-19T01:10:51.768Z,-1.17
2022-12-19T01:13:39.822Z,-1.10
2022-12-19T01:16:30.229Z,-1.13
2022-12-19T01:19:21.142Z,-1.28
2022-12-19T01:22:09.125Z,-1.56
2022-12-19T01:24:57.524Z,-1.57
2022-12-19T01:27:45.462Z,-1.50
2022-12-19T01:30:33.942Z,-1.44
2022-12-19T01:33:25.925Z,-1.46
2022-12-19T01:36:16.371Z,-1.44
2022-12-19T01:39:04.401Z,-1.50
2022-12-19T01:41:52.383Z,-1.47
2022-12-19T01:44:40.363Z,-1.33
2022-12-19T01:47:29.064Z,-1.37
2022-12-19T01:50:22.144Z,-1.45
2022-12-19T01:53:15.184Z,-1.28
2022-12-19T01:56:09.763Z,-1.26
2022-12-19T01:59:06.311Z,-1.29
2022-12-19T02:02:04.809Z,-1.17
2022-12-19T02:04:52.835Z,-1.11
2022-12-19T02:07:43.161Z,-1.08
2022-12-19T02:10:32.473Z,-1.17
2022-12-19T02:13:21.540Z,-1.10
2022-12-19T02:16:21.143Z,-1.41
2022-12-19T02:19:54.950Z,-1.23
2022-12-19T02:23:01.878Z,-1.28
2022-12-19T02:26:08.650Z,-1.18
2022-12-19T02:29:25.689Z,-1.28
2022-12-19T02:32:20.839Z,-1.31
2022-12-19T02:35:16.063Z,-1.27
2022-12-19T02:38:13.735Z,-1.29
2022-12-19T02:41:07.611Z,-1.33
2022-12-19T02:43:58.995Z,-1.21
2022-12-19T02:46:51.198Z,-1.30
2022-12-19T02:49:40.701Z,-1.14
2022-12-19T02:52:46.851Z,-1.16
2022-12-19T02:55:43.255Z,-1.12
2022-12-19T02:58:49.453Z,-1.09
2022-12-19T03:01:46.019Z,-1.09
2022-12-19T03:04:46.087Z,-1.04
2022-12-19T03:07:38.357Z,-1.00
2022-12-19T03:10:33.939Z,-0.86
2022-12-19T03:13:27.048Z,-0.75
2022-12-19T03:16:15.931Z,-0.80
2022-12-19T03:19:06.240Z,-0.88
2022-12-19T03:21:55.824Z,-0.92
2022-12-19T03:24:43.948Z,-1.00
2022-12-19T03:27:35.847Z,-0.99
2022-12-19T03:30:24.281Z,-0.96
2022-12-19T03:33:14.634Z,-0.99
2022-12-19T03:36:07.654Z,-0.98
2022-12-19T03:38:58.828Z,-0.93
2022-12-19T03:42:04.877Z,-1.06
2022-12-19T03:44:56.486Z,-0.98
2022-12-19T03:47:49.574Z,-0.95
2022-12-19T03:50:47.740Z,-0.97
2022-12-19T03:53:46.167Z,-0.93
2022-12-19T03:56:42.295Z,-0.95
2022-12-19T03:59:36.018Z,-1.14
2022-12-19T04:02:25.228Z,-1.11
2022-12-19T04:05:18.039Z,-1.02
2022-12-19T04:08:09.351Z,-1.02
2022-12-19T04:11:02.571Z,-0.92
2022-12-19T04:13:57.141Z,-0.89
2022-12-19T04:16:49.056Z,-0.90
2022-12-19T04:19:43.777Z,-0.85
2022-12-19T04:22:36.644Z,-0.83
2022-12-19T04:25:30.144Z,-1.14
2022-12-19T04:28:21.431Z,-0.78
2022-12-19T04:31:14.643Z,-0.82
2022-12-19T04:34:02.652Z,-0.79
2022-12-19T04:36:51.693Z,-0.77
2022-12-19T04:39:39.732Z,-0.75
2022-12-19T04:42:27.710Z,-0.65
2022-12-19T04:45:18.294Z,-0.60
2022-12-19T04:48:08.941Z,-0.68
2022-12-19T04:50:57.357Z,-0.55
2022-12-19T04:53:45.445Z,-0.55
2022-12-19T04:56:33.386Z,-0.59
2022-12-19T04:59:21.365Z,-0.60
2022-12-19T05:02:09.463Z,-0.48
2022-12-19T05:04:58.848Z,-0.44
2022-12-19T05:07:48.054Z,-0.44
2022-12-19T05:10:37.513Z,-0.47
2022-12-19T05:13:25.465Z,-0.38
2022-12-19T05:16:15.005Z,-0.43
2022-12-19T05:19:03.049Z,-0.43
2022-12-19T05:21:52.312Z,-0.46
2022-12-19T05:24:40.277Z,-0.38
2022-12-19T05:27:28.227Z,-0.27
2022-12-19T05:30:16.240Z,-0.23
2022-12-19T05:33:04.485Z,-0.21
2022-12-19T05:35:52.478Z,-0.12
2022-12-19T05:38:42.396Z,-0.12
2022-12-19T05:41:30.339Z,-0.05
2022-12-19T05:44:18.319Z,-0.08
2022-12-19T05:47:06.373Z,-0.12
2022-12-19T05:49:54.340Z,0.02
2022-12-19T05:52:42.387Z,0.08
2022-12-19T05:55:31.854Z,0.17
2022-12-19T05:58:19.808Z,0.11
2022-12-19T06:01:09.608Z,0.13
2022-12-19T06:03:57.614Z,0.17
2022-12-19T06:06:45.609Z,0.18
2022-12-19T06:09:33.657Z,0.29
2022-12-19T06:12:23.133Z,0.34
2022-12-19T06:15:12.164Z,0.37
2022-12-19T06:18:00.113Z,0.39
2022-12-19T06:20:57.321Z,0.25
2022-12-19T06:23:46.215Z,0.20
2022-12-19T06:26:34.212Z,0.18
2022-12-19T06:29:23.742Z,0.22
2022-12-19T06:32:12.715Z,0.20
2022-12-19T06:35:04.770Z,0.22
2022-12-19T06:37:57.887Z,0.40
2022-12-19T06:41:06.592Z,0.46
2022-12-19T06:43:54.538Z,0.48
2022-12-19T06:46:44.260Z,0.39
2022-12-19T06:49:32.312Z,0.35
2022-12-19T06:52:20.356Z,0.46
2022-12-19T06:55:09.178Z,0.46
2022-12-19T06:57:57.139Z,0.44
2022-12-19T07:00:45.575Z,0.50
2022-12-19T07:03:38.872Z,0.47
2022-12-19T07:06:07.722Z,0.47
2022-12-19T07:08:35.361Z,0.39
2022-12-19T07:11:03.050Z,0.47
2022-12-19T07:13:30.915Z,0.49
2022-12-19T07:16:03.618Z,0.43
2022-12-19T07:18:34.143Z,0.42
2022-12-19T07:21:03.459Z,0.44
2022-12-19T07:23:31.322Z,0.49
2022-12-19T07:25:59.272Z,0.54
2022-12-19T07:28:27.088Z,0.56
2022-12-19T07:30:54.735Z,0.57
2022-12-19T07:33:22.406Z,0.64
2022-12-19T07:35:50.086Z,0.55
2022-12-19T07:38:19.250Z,0.58
2022-12-19T07:40:46.913Z,0.71
2022-12-19T07:43:14.555Z,0.57
2022-12-19T07:45:43.681Z,0.62
2022-12-19T07:48:11.352Z,0.67
2022-12-19T07:50:39.051Z,0.67
2022-12-19T07:53:06.681Z,0.83
2022-12-19T07:55:35.759Z,0.95
2022-12-19T07:58:03.844Z,0.86
2022-12-19T08:00:31.681Z,0.85
2022-12-19T08:02:59.559Z,0.96
2022-12-19T08:05:27.383Z,1.03
2022-12-19T08:07:55.508Z,1.21
2022-12-19T08:10:23.563Z,1.28
2022-12-19T08:12:52.986Z,1.16
2022-12-19T08:15:20.695Z,1.35
2022-12-19T08:17:48.398Z,1.40
2022-12-19T08:20:16.158Z,1.59
2022-12-19T08:22:43.833Z,1.65
2022-12-19T08:25:11.625Z,1.69
2022-12-19T08:27:39.660Z,1.76
2022-12-19T08:30:11.825Z,1.81
2022-12-19T08:32:39.977Z,1.86
2022-12-19T08:35:08.980Z,1.74
2022-12-19T08:37:37.007Z,1.88
2022-12-19T08:40:05.275Z,1.76
2022-12-19T08:42:33.489Z,1.84
2022-12-19T08:45:01.257Z,1.85
2022-12-19T08:47:30.244Z,1.95
2022-12-19T08:49:58.056Z,1.91
2022-12-19T08:52:25.804Z,1.90
2022-12-19T08:54:53.490Z,1.97
2022-12-19T08:57:21.137Z,2.10
2022-12-19T08:59:48.737Z,2.38
2022-12-19T09:02:17.466Z,2.59
2022-12-19T09:06:03.902Z,2.84
2022-12-19T09:07:38.890Z,2.83
2022-12-19T09:10:08.258Z,2.97
2022-12-19T09:12:35.914Z,2.99
2022-12-19T09:15:03.666Z,3.09
2022-12-19T09:17:31.340Z,3.05
2022-12-19T09:20:00.987Z,2.58
2022-12-19T09:22:29.538Z,3.07
2022-12-19T09:24:57.479Z,3.21
2022-12-19T09:27:25.436Z,3.00
2022-12-19T09:29:53.244Z,3.16
2022-12-19T09:32:20.873Z,2.98
2022-12-19T09:34:48.592Z,3.12
2022-12-19T09:37:18.093Z,3.18
2022-12-19T09:39:47.139Z,3.21
2022-12-19T09:42:31.825Z,3.22
2022-12-19T09:45:35.994Z,3.01
2022-12-19T09:48:05.790Z,3.35
2022-12-19T09:50:46.188Z,3.35
2022-12-19T09:53:21.996Z,3.41
2022-12-19T09:55:54.063Z,3.33
2022-12-19T09:58:32.701Z,3.39
2022-12-19T10:01:06.877Z,3.54
2022-12-19T10:03:40.485Z,3.57
2022-12-19T10:07:11.196Z,3.57
2022-12-19T10:11:34.774Z,3.60
2022-12-19T10:12:45.956Z,3.89
2022-12-19T10:15:17.695Z,3.90
2022-12-19T10:18:12.051Z,4.05
2022-12-19T10:20:43.260Z,4.04
2022-12-19T10:23:29.145Z,4.17
2022-12-19T10:26:01.390Z,4.21
2022-12-19T10:28:52.994Z,4.35
2022-12-19T10:31:25.671Z,4.30
2022-12-19T10:33:58.835Z,4.59
2022-12-19T10:36:55.946Z,4.38
2022-12-19T10:39:23.432Z,4.59
2022-12-19T10:41:57.410Z,4.56
2022-12-19T10:44:29.125Z,4.17
2022-12-19T10:46:57.082Z,4.15
2022-12-19T10:49:27.821Z,4.06
2022-12-19T10:52:00.080Z,4.07
2022-12-19T10:54:39.401Z,3.99
2022-12-19T10:57:25.414Z,3.92
2022-12-19T10:59:58.600Z,3.83
2022-12-19T11:02:42.326Z,3.61
2022-12-19T11:05:25.082Z,3.69
2022-12-19T11:08:04.276Z,3.57
2022-12-19T11:11:47.808Z,3.82
2022-12-19T11:18:38.896Z,3.82
2022-12-19T11:19:28.388Z,3.82
2022-12-19T11:29:27.014Z,3.88
2022-12-19T11:29:37.048Z,3.76
2022-12-19T11:30:35.805Z,3.61
2022-12-19T11:30:45.727Z,3.56
2022-12-19T11:32:14.217Z,3.63
2022-12-19T11:33:56.133Z,3.75
2022-12-19T11:36:33.103Z,3.81
2022-12-19T11:39:01.261Z,3.76
2022-12-19T11:41:39.796Z,3.94
2022-12-19T11:44:12.642Z,4.01
2022-12-19T11:46:46.454Z,4.21
2022-12-19T11:49:24.307Z,4.26
2022-12-19T11:52:29.586Z,4.23
2022-12-19T11:55:02.983Z,4.31
2022-12-19T11:57:30.680Z,4.30
2022-12-19T12:00:04.717Z,4.46
2022-12-19T12:03:06.084Z,4.50
2022-12-19T12:05:44.095Z,4.61
2022-12-19T12:10:09.386Z,4.58
2022-12-19T12:14:31.695Z,4.62
2022-12-19T12:23:31.098Z,4.59
2022-12-19T12:29:37.981Z,4.91
2022-12-19T12:31:12.695Z,4.86
2022-12-19T12:31:47.315Z,4.93
2022-12-19T12:32:05.262Z,4.76
2022-12-19T12:32:06.312Z,4.88
2022-12-19T12:35:40.930Z,5.05
2022-12-19T12:38:40.099Z,5.18
2022-12-19T12:41:20.272Z,5.04
2022-12-19T12:44:01.526Z,5.36
2022-12-19T12:46:39.240Z,5.36
2022-12-19T12:49:13.189Z,5.57
2022-12-19T12:51:41.959Z,5.52
2022-12-19T12:54:14.967Z,5.49
2022-12-19T12:56:43.753Z,5.43
2022-12-19T12:59:22.411Z,5.36
2022-12-19T13:01:54.322Z,5.46
2022-12-19T13:04:42.094Z,5.38
2022-12-19T13:07:19.792Z,5.20
2022-12-19T13:09:54.083Z,5.24
2022-12-19T13:12:43.935Z,5.21
2022-12-19T13:15:34.370Z,5.30
2022-12-19T13:18:12.876Z,5.05
2022-12-19T13:20:46.672Z,4.96
2022-12-19T13:23:56.984Z,4.83
2022-12-19T13:26:49.429Z,4.64
2022-12-19T13:29:54.785Z,4.45
2022-12-19T13:32:23.769Z,4.27
2022-12-19T13:35:04.010Z,4.25
2022-12-19T13:40:00.091Z,4.20
2022-12-19T13:40:51.723Z,4.07
2022-12-19T13:43:42.641Z,3.98
2022-12-19T13:46:24.893Z,3.95
2022-12-19T13:48:56.590Z,3.87
2022-12-19T13:51:24.302Z,3.79
2022-12-19T13:53:59.534Z,3.71
2022-12-19T13:56:31.618Z,3.79
2022-12-19T13:59:03.575Z,3.76
2022-12-19T14:01:33.749Z,3.69
2022-12-19T14:04:07.781Z,3.63
2022-12-19T14:06:42.047Z,3.51
2022-12-19T14:11:25.582Z,3.42
2022-12-19T14:13:52.987Z,3.15
2022-12-19T14:15:27.641Z,3.37
2022-12-19T14:17:55.398Z,3.27
2022-12-19T14:22:07.079Z,3.27
2022-12-19T14:23:14.115Z,2.74
2022-12-19T14:28:17.829Z,3.16
2022-12-19T14:28:41.305Z,3.02
2022-12-19T14:31:15.063Z,3.17
2022-12-19T14:34:11.244Z,3.13
2022-12-19T14:36:49.122Z,3.14
2022-12-19T14:39:27.506Z,3.05
2022-12-19T14:42:57.019Z,3.02
2022-12-19T14:54:18.066Z,2.87
2022-12-19T14:54:21.091Z,2.88
2022-12-19T14:54:26.801Z,2.85
2022-12-19T14:56:08.366Z,2.57
2022-12-19T14:57:25.502Z,2.52
2022-12-19T15:00:50.924Z,2.48
2022-12-19T15:03:19.767Z,2.40
2022-12-19T15:05:49.296Z,2.52
2022-12-19T15:09:01.241Z,2.53
2022-12-19T15:11:54.090Z,2.44
2022-12-19T15:14:53.992Z,2.61
2022-12-19T15:17:23.761Z,2.49
2022-12-19T15:19:52.488Z,2.51
2022-12-19T15:22:21.458Z,2.46
2022-12-19T15:24:49.149Z,2.42
2022-12-19T15:27:17.971Z,2.26
2022-12-19T15:29:46.071Z,2.38
2022-12-19T15:32:15.003Z,2.23
2022-12-19T15:34:50.633Z,2.19
2022-12-19T15:37:18.974Z,2.14
2022-12-19T15:39:48.013Z,2.20
2022-12-19T15:42:19.661Z,2.14
2022-12-19T15:44:49.175Z,1.86
2022-12-19T15:47:19.483Z,2.12
2022-12-19T15:49:47.287Z,2.12
2022-12-19T15:52:18.291Z,2.08
2022-12-19T15:54:49.812Z,1.90
2022-12-19T15:57:32.450Z,2.08
2022-12-19T16:00:02.132Z,2.02
2022-12-19T16:05:23.839Z,2.16
2022-12-19T16:07:51.905Z,1.86
2022-12-19T16:10:19.644Z,1.96
2022-12-19T16:12:51.866Z,2.00
2022-12-19T16:15:26.271Z,2.03
2022-12-19T16:17:54.319Z,1.91
2022-12-19T16:20:24.337Z,1.96
2022-12-19T16:22:52.907Z,1.86
2022-12-19T16:25:20.739Z,1.76
2022-12-19T16:27:55.687Z,1.87
2022-12-19T16:30:25.247Z,1.82
2022-12-19T16:32:53.896Z,1.82
2022-12-19T16:35:55.084Z,1.87
2022-12-19T16:38:11.415Z,1.90
2022-12-19T16:40:39.548Z,1.98
2022-12-19T16:43:15.452Z,1.95
2022-12-19T16:45:44.180Z,1.58
2022-12-19T16:48:19.826Z,1.96
2022-12-19T16:50:47.496Z,2.09
2022-12-19T16:53:15.506Z,2.19
2022-12-19T16:55:44.140Z,2.17
2022-12-19T16:58:17.340Z,2.24
2022-12-19T17:00:45.312Z,2.21
2022-12-19T17:03:28.281Z,2.14
2022-12-19T17:05:56.656Z,2.28
2022-12-19T17:08:24.708Z,2.18
2022-12-19T17:10:54.324Z,2.28
2022-12-19T17:13:24.619Z,2.33
2022-12-19T17:15:56.803Z,2.48
2022-12-19T17:18:29.242Z,2.48
2022-12-19T17:20:57.872Z,2.52
2022-12-19T17:23:28.910Z,2.64
2022-12-19T17:25:57.874Z,2.58
2022-12-19T17:28:27.291Z,2.67
2022-12-19T17:30:57.380Z,2.52
2022-12-19T17:33:29.648Z,2.58
2022-12-19T17:35:57.424Z,2.50
2022-12-19T17:38:27.189Z,3.13
2022-12-19T17:40:54.914Z,3.12
2022-12-19T17:43:22.634Z,2.92
2022-12-19T17:45:52.837Z,2.96
2022-12-19T17:48:27.275Z,3.02
2022-12-19T17:50:55.648Z,3.07
2022-12-19T17:53:23.442Z,3.26
2022-12-19T17:55:51.469Z,2.92
2022-12-19T17:58:19.192Z,3.11
2022-12-19T18:00:48.066Z,3.22
2022-12-19T18:03:22.495Z,3.16
2022-12-19T18:05:51.396Z,3.20
2022-12-19T18:08:27.827Z,3.01
2022-12-19T18:10:57.435Z,3.14
2022-12-19T18:13:26.342Z,3.09
2022-12-19T18:15:57.411Z,2.94
2022-12-19T18:18:30.614Z,3.07
2022-12-19T18:20:59.736Z,3.01
2022-12-19T18:23:27.831Z,3.18
2022-12-19T18:26:01.132Z,3.22
2022-12-19T18:28:29.853Z,3.24
2022-12-19T18:31:01.171Z,3.12
2022-12-19T18:33:37.869Z,3.05
2022-12-19T18:36:07.642Z,2.95
2022-12-19T18:38:35.658Z,2.90
2022-12-19T18:41:03.698Z,2.78
2022-12-19T18:43:32.594Z,2.68
2022-12-19T18:46:00.414Z,2.66
2022-12-19T18:48:32.322Z,3.12
2022-12-19T18:51:01.909Z,3.22
2022-12-19T18:53:35.241Z,3.30
2022-12-19T18:56:05.930Z,3.34
2022-12-19T18:58:34.248Z,3.31
2022-12-19T19:01:03.745Z,3.41
2022-12-19T19:03:34.693Z,3.83
2022-12-19T19:06:03.601Z,4.01
2022-12-19T19:08:33.491Z,4.57
2022-12-19T19:11:17.566Z,4.96
2022-12-19T19:13:45.207Z,5.57
2022-12-19T19:16:18.939Z,6.14
2022-12-19T19:18:52.544Z,6.30
2022-12-19T19:21:21.612Z,6.60
2022-12-19T19:23:55.235Z,6.47
2022-12-19T19:26:23.051Z,6.80
2022-12-19T19:28:52.704Z,7.03
2022-12-19T19:31:24.228Z,7.08
2022-12-19T19:33:58.408Z,7.20
2022-12-19T19:36:30.556Z,7.03
2022-12-19T19:38:59.056Z,6.87
2022-12-19T19:41:29.592Z,7.05
2022-12-19T19:43:57.468Z,6.47
2022-12-19T19:46:25.229Z,6.58
2022-12-19T19:48:54.277Z,6.93
2022-12-19T19:51:22.187Z,6.96
2022-12-19T19:53:50.106Z,6.94
2022-12-19T19:56:17.759Z,7.07
2022-12-19T19:58:45.567Z,7.01
2022-12-19T20:01:15.363Z,6.90
2022-12-19T20:03:44.877Z,6.85
2022-12-19T20:06:14.474Z,6.85
2022-12-19T20:08:42.145Z,6.96
2022-12-19T20:11:10.489Z,7.03
2022-12-19T20:13:39.205Z,7.15
2022-12-19T20:16:08.982Z,7.05
2022-12-19T20:18:38.052Z,6.95
2022-12-19T20:21:12.770Z,7.00
2022-12-19T20:23:43.548Z,6.95
2022-12-19T20:26:12.288Z,6.95
2022-12-19T20:28:47.666Z,7.04
2022-12-19T20:31:15.937Z,7.10
2022-12-19T20:33:43.656Z,6.58
2022-12-19T20:36:13.489Z,6.46
2022-12-19T20:38:42.812Z,6.59
2022-12-19T20:41:10.828Z,6.79
2022-12-19T20:43:38.992Z,6.57
2022-12-19T20:46:09.652Z,6.31
2022-12-19T20:48:38.061Z,6.28
2022-12-19T20:51:07.121Z,6.05
2022-12-19T20:53:36.185Z,5.97
2022-12-19T20:56:07.176Z,5.78
2022-12-19T20:58:36.717Z,5.75
2022-12-19T21:01:07.210Z,5.75
2022-12-19T21:03:55.366Z,5.60
2022-12-19T21:06:43.433Z,5.46
2022-12-19T21:09:31.346Z,5.79
2022-12-19T21:12:21.408Z,5.79
2022-12-19T21:15:09.727Z,5.88
2022-12-19T21:17:57.664Z,5.78
2022-12-19T21:20:46.120Z,5.56
2022-12-19T21:23:34.574Z,5.39
2022-12-19T21:26:24.744Z,5.09
2022-12-19T21:29:14.585Z,5.25
2022-12-19T21:32:02.666Z,5.24
2022-12-19T21:34:53.519Z,5.47
2022-12-19T21:37:43.749Z,5.53
2022-12-19T21:40:31.872Z,5.71
2022-12-19T21:43:19.838Z,6.04
2022-12-19T21:46:12.294Z,5.90
2022-12-19T21:49:00.705Z,5.96
2022-12-19T21:51:48.648Z,6.22
2022-12-19T21:54:36.613Z,5.96
2022-12-19T21:57:24.759Z,6.34
2022-12-19T22:00:14.266Z,6.31
2022-12-19T22:03:18.790Z,6.14
2022-12-19T22:06:08.936Z,6.33
2022-12-19T22:08:57.405Z,6.67
2022-12-19T22:11:45.872Z,6.84
2022-12-19T22:14:34.196Z,7.09
2022-12-19T22:17:22.833Z,7.44
2022-12-19T22:20:12.388Z,7.34
2022-12-19T22:23:00.335Z,7.64
2022-12-19T22:25:48.260Z,7.88
2022-12-19T22:28:38.853Z,7.49
2022-12-19T22:31:28.878Z,7.20
2022-12-19T22:34:18.756Z,7.18
2022-12-19T22:37:08.102Z,7.03
2022-12-19T22:39:59.895Z,7.12
2022-12-19T22:42:47.804Z,7.17
2022-12-19T22:45:35.766Z,7.40
2022-12-19T22:48:23.832Z,7.19
2022-12-19T22:51:12.414Z,7.17
2022-12-19T22:54:02.468Z,6.91
2022-12-19T22:56:51.590Z,6.88
2022-12-19T22:59:40.383Z,6.85
2022-12-19T23:02:29.164Z,6.65
2022-12-19T23:05:17.583Z,6.80
2022-12-19T23:08:06.006Z,6.87
2022-12-19T23:10:55.535Z,7.11
2022-12-19T23:13:44.598Z,6.91
2022-12-19T23:16:32.721Z,6.98
2022-12-19T23:19:20.832Z,6.81
2022-12-19T23:22:08.856Z,6.82
2022-12-19T23:24:56.827Z,6.68
2022-12-19T23:27:47.188Z,6.73
2022-12-19T23:30:35.151Z,6.79
2022-12-19T23:33:23.096Z,6.67
2022-12-19T23:36:11.188Z,6.61
2022-12-19T23:38:59.162Z,6.54
2022-12-19T23:41:47.112Z,6.61
2022-12-19T23:44:36.609Z,6.54
2022-12-19T23:47:24.553Z,6.60
2022-12-19T23:50:12.706Z,6.68
2022-12-19T23:53:00.661Z,6.46
2022-12-19T23:55:50.390Z,6.35
2022-12-19T23:58:38.446Z,6.19
